Time;durP1;ratioP1;P1;durP2;ratioP2;P2;SDS_P1;SDS_P2;PMS_P1;PMS_P2;Temp;Humidity;BMP_temperature;BMP_pressure;BME280_temperature;BME280_humidity;BME280_pressure;Samples;Min_cycle;Max_cycle;Signal;HPM_P1;HPM_P2
2023/03/12 00:02:03;;;;;;;;;;;;;;;;;;5127523;27;1902;-45
2023/03/12 00:04:31;;;;;;;;;;;;;;;;;;5113512;28;1951;-44
2023/03/12 00:06:58;;;;;;;;;;;;;;;;;;5113119;28;1998;-44
2023/03/12 00:09:25;;;;;;;;;;;;;;;;;;5125946;27;2023;-42
2023/03/12 00:11:52;;;;;;;;;;;;;;;;;;5133853;27;1708;-45
2023/03/12 00:14:20;;;;;;;;;;;;;;;;;;5134056;27;1965;-49
2023/03/12 00:16:47;;;;;;;;;;;;;;;;;;5133519;27;1559;-50
2023/03/12 00:19:15;;;;;;;;;;;;;;;;;;5130593;27;1981;-44
2023/03/12 00:21:42;;;;;;;;;;;;;;;;;;5113013;28;1937;-45
2023/03/12 00:24:09;;;;;;;;;;;;;;;;;;5113030;28;1967;-42
2023/03/12 00:26:36;;;;;;;;;;;;;;;;;;5094762;28;2036;-44
2023/03/12 00:29:04;;;;;;;;;;;;;;;;;;5112865;28;1772;-43
2023/03/12 00:31:31;;;;;;;;;;;;;;;;;;5094596;28;2166;-44
2023/03/12 00:34:00;;;;;;;;;;;;;;;;;;5118515;27;1774;-47
2023/03/12 00:36:29;;;;;;;;;;;;;;;;;;5113799;27;2303;-44
2023/03/12 00:38:59;;;;;;;;;;;;;;;;;;5133378;27;1668;-43
2023/03/12 00:41:27;;;;;;;;;;;;;;;;;;5133263;27;1485;-45
2023/03/12 00:43:54;;;;;;;;;;;;;;;;;;5114779;27;1966;-49
2023/03/12 00:46:22;;;;;;;;;;;;;;;;;;5133453;27;2210;-50
2023/03/12 00:48:49;;;;;;;;;;;;;;;;;;5133067;27;2088;-52
2023/03/12 00:51:17;;;;;;;;;;;;;;;;;;5112904;27;1934;-49
2023/03/12 00:53:44;;;;;;;;;;;;;;;;;;5112439;28;1679;-52
2023/03/12 00:56:11;;;;;;;;;;;;;;;;;;5112124;28;2014;-51
2023/03/12 00:58:40;;;;;;;;;;;;;;;;;;5112430;28;1677;-48
2023/03/12 01:01:08;;;;;;;;;;;;;;;;;;5093981;28;1720;-51
2023/03/12 01:03:35;;;;;;;;;;;;;;;;;;5112259;28;2219;-44
2023/03/12 01:06:02;;;;;;;;;;;;;;;;;;5112296;28;1942;-49
2023/03/12 01:08:30;;;;;;;;;;;;;;;;;;5116937;27;1657;-43
2023/03/12 01:10:57;;;;;;;;;;;;;;;;;;5114162;27;2214;-43
2023/03/12 01:13:24;;;;;;;;;;;;;;;;;;5132806;27;2271;-44
2023/03/12 01:15:51;;;;;;;;;;;;;;;;;;5114439;27;1994;-42
2023/03/12 01:18:19;;;;;;;;;;;;;;;;;;5114245;27;1783;-44
2023/03/12 01:20:46;;;;;;;;;;;;;;;;;;5100918;28;1965;-43
2023/03/12 01:23:14;;;;;;;;;;;;;;;;;;5111704;28;2133;-44
2023/03/12 01:25:42;;;;;;;;;;;;;;;;;;5112037;28;2290;-44
2023/03/12 01:28:09;;;;;;;;;;;;;;;;;;5111954;28;1693;-45
2023/03/12 01:30:36;;;;;;;;;;;;;;;;;;5112088;28;1856;-47
2023/03/12 01:33:04;;;;;;;;;;;;;;;;;;5111709;28;1652;-44
2023/03/12 01:35:34;;;;;;;;;;;;;;;;;;5111658;28;1513;-44
2023/03/12 01:38:01;;;;;;;;;;;;;;;;;;5093296;28;1791;-43
2023/03/12 01:40:31;;;;;;;;;;;;;;;;;;5111876;28;2161;-46
2023/03/12 01:43:13;;;;;;;;;;;;;;;;;;5111889;28;1981;-42
2023/03/12 01:45:59;;;;;;;;;;;;;;;;;;5111866;28;1775;-44
2023/03/12 01:48:29;;;;;;;;;;;;;;;;;;5111322;28;1917;-47
2023/03/12 01:50:58;;;;;;;;;;;;;;;;;;5093668;28;1499;-44
2023/03/12 01:53:25;;;;;;;;;;;;;;;;;;5093315;28;1933;-47
2023/03/12 01:55:52;;;;;;;;;;;;;;;;;;5093306;28;2083;-43
2023/03/12 01:58:21;;;;;;;;;;;;;;;;;;5093385;28;1932;-43
2023/03/12 02:00:48;;;;;;;;;;;;;;;;;;5111392;28;2185;-44
2023/03/12 02:03:15;;;;;;;;;;;;;;;;;;5111470;28;1907;-44
2023/03/12 02:05:43;;;;;;;;;;;;;;;;;;5111476;28;2094;-48
2023/03/12 02:08:11;;;;;;;;;;;;;;;;;;5111447;28;2021;-43
2023/03/12 02:10:39;;;;;;;;;;;;;;;;;;5111415;28;1399;-44
2023/03/12 02:13:10;;;;;;;;;;;;;;;;;;5093102;28;1583;-45
2023/03/12 02:15:42;;;;;;;;;;;;;;;;;;5093100;28;1766;-45
2023/03/12 02:18:12;;;;;;;;;;;;;;;;;;5093144;28;1801;-45
2023/03/12 02:20:57;;;;;;;;;;;;;;;;;;5111388;28;2274;-43
2023/03/12 02:23:31;;;;;;;;;;;;;;;;;;5092970;28;1965;-43
2023/03/12 02:25:59;;;;;;;;;;;;;;;;;;5093015;28;2137;-44
2023/03/12 02:28:28;;;;;;;;;;;;;;;;;;5111633;28;2109;-43
2023/03/12 02:31:01;;;;;;;;;;;;;;;;;;5111352;28;1770;-44
2023/03/12 02:33:29;;;;;;;;;;;;;;;;;;5093167;28;1676;-45
2023/03/12 02:35:57;;;;;;;;;;;;;;;;;;5117140;28;2027;-47
2023/03/12 02:38:36;;;;;;;;;;;;;;;;;;5113060;28;1884;-43
2023/03/12 02:41:20;;;;;;;;;;;;;;;;;;5131592;28;1964;-47
2023/03/12 02:43:49;;;;;;;;;;;;;;;;;;5131384;28;1906;-44
2023/03/12 02:46:16;;;;;;;;;;;;;;;;;;5113438;28;1862;-49
2023/03/12 02:48:44;;;;;;;;;;;;;;;;;;5131306;28;2316;-51
2023/03/12 02:51:11;;;;;;;;;;;;;;;;;;5095327;28;2192;-44
2023/03/12 02:53:38;;;;;;;;;;;;;;;;;;5092670;28;2130;-47
2023/03/12 02:56:06;;;;;;;;;;;;;;;;;;5111150;28;1951;-46
2023/03/12 02:58:33;;;;;;;;;;;;;;;;;;5092933;28;1922;-48
2023/03/12 03:01:02;;;;;;;;;;;;;;;;;;5096200;28;2234;-52
2023/03/12 03:03:29;;;;;;;;;;;;;;;;;;5096326;28;2238;-47
2023/03/12 03:05:57;;;;;;;;;;;;;;;;;;5122348;27;1942;-43
2023/03/12 03:08:24;;;;;;;;;;;;;;;;;;5112530;28;1760;-51
2023/03/12 03:10:51;;;;;;;;;;;;;;;;;;5096142;28;1674;-44
2023/03/12 03:13:19;;;;;;;;;;;;;;;;;;5114411;28;2331;-43
2023/03/12 03:15:46;;;;;;;;;;;;;;;;;;5096003;28;1645;-48
2023/03/12 03:18:13;;;;;;;;;;;;;;;;;;5114323;28;2126;-43
2023/03/12 03:20:43;;;;;;;;;;;;;;;;;;5114515;28;2236;-43
2023/03/12 03:23:11;;;;;;;;;;;;;;;;;;5095815;28;1890;-44
2023/03/12 03:25:39;;;;;;;;;;;;;;;;;;5096003;28;1765;-44
2023/03/12 03:28:06;;;;;;;;;;;;;;;;;;5095866;28;1852;-44
2023/03/12 03:30:33;;;;;;;;;;;;;;;;;;5114054;28;1683;-44
2023/03/12 03:33:03;;;;;;;;;;;;;;;;;;5096909;28;1790;-43
2023/03/12 03:35:32;;;;;;;;;;;;;;;;;;5128994;27;1260;-51
2023/03/12 03:38:00;;;;;;;;;;;;;;;;;;5115870;27;2127;-42
2023/03/12 03:40:27;;;;;;;;;;;;;;;;;;5116124;27;2214;-49
2023/03/12 03:42:54;;;;;;;;;;;;;;;;;;5115556;27;2028;-43
2023/03/12 03:45:22;;;;;;;;;;;;;;;;;;5115900;27;1812;-43
2023/03/12 03:47:52;;;;;;;;;;;;;;;;;;5115918;27;2101;-43
2023/03/12 03:50:19;;;;;;;;;;;;;;;;;;5111764;28;2123;-44
2023/03/12 03:52:47;;;;;;;;;;;;;;;;;;5095407;28;1673;-45
2023/03/12 03:55:14;;;;;;;;;;;;;;;;;;5095113;28;2478;-42
2023/03/12 03:57:43;;;;;;;;;;;;;;;;;;5095246;28;1969;-44
2023/03/12 04:00:12;;;;;;;;;;;;;;;;;;5095116;28;2129;-45
2023/03/12 04:02:43;;;;;;;;;;;;;;;;;;5095436;28;2051;-44
2023/03/12 04:05:12;;;;;;;;;;;;;;;;;;5095159;28;1951;-44
2023/03/12 04:07:39;;;;;;;;;;;;;;;;;;5094970;28;1873;-44
2023/03/12 04:10:07;;;;;;;;;;;;;;;;;;5094863;28;1963;-44
2023/03/12 04:12:35;;;;;;;;;;;;;;;;;;5094961;28;2097;-44
2023/03/12 04:15:02;;;;;;;;;;;;;;;;;;5113310;28;2035;-43
2023/03/12 04:17:30;;;;;;;;;;;;;;;;;;5094944;28;1983;-43
2023/03/12 04:19:57;;;;;;;;;;;;;;;;;;5094950;27;1736;-44
2023/03/12 04:22:25;;;;;;;;;;;;;;;;;;5094709;28;1742;-43
2023/03/12 04:24:52;;;;;;;;;;;;;;;;;;5094502;28;2107;-42
2023/03/12 04:27:22;;;;;;;;;;;;;;;;;;5109459;28;2129;-42
2023/03/12 04:29:49;;;;;;;;;;;;;;;;;;5094688;28;1877;-45
2023/03/12 04:32:16;;;;;;;;;;;;;;;;;;5094480;28;1792;-45
2023/03/12 04:34:43;;;;;;;;;;;;;;;;;;5094399;28;2331;-44
2023/03/12 04:37:15;;;;;;;;;;;;;;;;;;5112650;28;1654;-47
2023/03/12 04:39:43;;;;;;;;;;;;;;;;;;5094400;28;1505;-45
2023/03/12 04:42:11;;;;;;;;;;;;;;;;;;5094350;28;1852;-46
2023/03/12 04:44:40;;;;;;;;;;;;;;;;;;5094235;28;1967;-43
2023/03/12 04:47:07;;;;;;;;;;;;;;;;;;5094751;28;1397;-48
2023/03/12 04:49:37;;;;;;;;;;;;;;;;;;5093772;28;2184;-43
2023/03/12 04:52:05;;;;;;;;;;;;;;;;;;5094275;28;1923;-50
2023/03/12 04:54:33;;;;;;;;;;;;;;;;;;5094088;28;1915;-46
2023/03/12 04:57:00;;;;;;;;;;;;;;;;;;5094103;28;2263;-45
2023/03/12 04:59:28;;;;;;;;;;;;;;;;;;5112391;28;1378;-45
2023/03/12 05:01:55;;;;;;;;;;;;;;;;;;5093804;28;2083;-43
2023/03/12 05:04:26;;;;;;;;;;;;;;;;;;5094042;28;1938;-45
2023/03/12 05:06:55;;;;;;;;;;;;;;;;;;5112134;28;1791;-48
2023/03/12 05:09:22;;;;;;;;;;;;;;;;;;5102659;28;2116;-44
2023/03/12 05:11:50;;;;;;;;;;;;;;;;;;5093301;28;1429;-48
2023/03/12 05:14:19;;;;;;;;;;;;;;;;;;5104196;28;1964;-49
2023/03/12 05:16:47;;;;;;;;;;;;;;;;;;5093767;28;2137;-46
2023/03/12 05:19:14;;;;;;;;;;;;;;;;;;5100743;28;2222;-50
2023/03/12 05:21:42;;;;;;;;;;;;;;;;;;5109853;28;2031;-46
2023/03/12 05:24:09;;;;;;;;;;;;;;;;;;5132573;27;1980;-44
2023/03/12 05:26:37;;;;;;;;;;;;;;;;;;5110184;28;1502;-43
2023/03/12 05:29:09;;;;;;;;;;;;;;;;;;5093603;28;2059;-48
2023/03/12 05:31:37;;;;;;;;;;;;;;;;;;5093571;28;1765;-43
2023/03/12 05:34:05;;;;;;;;;;;;;;;;;;5093449;28;1513;-45
2023/03/12 05:36:37;;;;;;;;;;;;;;;;;;5093791;28;1763;-43
2023/03/12 05:39:04;;;;;;;;;;;;;;;;;;5093445;28;1875;-43
2023/03/12 05:41:33;;;;;;;;;;;;;;;;;;5093444;28;1678;-43
2023/03/12 05:44:06;;;;;;;;;;;;;;;;;;5093238;28;2006;-43
2023/03/12 05:46:34;;;;;;;;;;;;;;;;;;5093448;28;1572;-44
2023/03/12 05:49:01;;;;;;;;;;;;;;;;;;5105252;28;2140;-43
2023/03/12 05:51:30;;;;;;;;;;;;;;;;;;5113856;28;1455;-43
2023/03/12 05:53:58;;;;;;;;;;;;;;;;;;5113769;28;2093;-47
2023/03/12 05:56:26;;;;;;;;;;;;;;;;;;5113556;28;1957;-43
2023/03/12 05:58:54;;;;;;;;;;;;;;;;;;5132228;28;2104;-44
2023/03/12 06:01:24;;;;;;;;;;;;;;;;;;5113653;28;2129;-44
2023/03/12 06:03:53;;;;;;;;;;;;;;;;;;5113268;28;2163;-43
2023/03/12 06:06:22;;;;;;;;;;;;;;;;;;5113358;28;2053;-44
2023/03/12 06:08:50;;;;;;;;;;;;;;;;;;5124202;28;2150;-44
2023/03/12 06:11:17;;;;;;;;;;;;;;;;;;5093168;28;1735;-44
2023/03/12 06:13:44;;;;;;;;;;;;;;;;;;5093231;28;1843;-44
2023/03/12 06:16:16;;;;;;;;;;;;;;;;;;5093354;28;1735;-42
2023/03/12 06:18:44;;;;;;;;;;;;;;;;;;5093159;28;2023;-43
2023/03/12 06:21:16;;;;;;;;;;;;;;;;;;5098706;28;1750;-43
2023/03/12 06:23:44;;;;;;;;;;;;;;;;;;5113096;28;1978;-46
2023/03/12 06:26:18;;;;;;;;;;;;;;;;;;5113190;28;2092;-44
2023/03/12 06:28:46;;;;;;;;;;;;;;;;;;5113938;28;2269;-44
2023/03/12 06:31:14;;;;;;;;;;;;;;;;;;5129927;28;1999;-44
2023/03/12 06:33:41;;;;;;;;;;;;;;;;;;5111183;28;1675;-44
2023/03/12 06:36:09;;;;;;;;;;;;;;;;;;5114864;28;1788;-42
2023/03/12 06:38:36;;;;;;;;;;;;;;;;;;5115070;28;1842;-45
2023/03/12 06:41:08;;;;;;;;;;;;;;;;;;5116587;27;1712;-45
2023/03/12 06:43:36;;;;;;;;;;;;;;;;;;5135399;27;1989;-43
2023/03/12 06:46:04;;;;;;;;;;;;;;;;;;5135243;27;1461;-43
2023/03/12 06:48:35;;;;;;;;;;;;;;;;;;5135281;27;1777;-44
2023/03/12 06:51:03;;;;;;;;;;;;;;;;;;5135338;27;1852;-44
2023/03/12 06:53:30;;;;;;;;;;;;;;;;;;5135268;27;2211;-43
2023/03/12 06:55:58;;;;;;;;;;;;;;;;;;5135317;27;1739;-43
2023/03/12 06:58:25;;;;;;;;;;;;;;;;;;5135334;27;1966;-44
2023/03/12 07:00:53;;;;;;;;;;;;;;;;;;5135036;27;2008;-45
2023/03/12 07:03:21;;;;;;;;;;;;;;;;;;5135253;27;1936;-43
2023/03/12 07:05:49;;;;;;;;;;;;;;;;;;5118884;27;1973;-44
2023/03/12 07:08:17;;;;;;;;;;;;;;;;;;5117719;27;1600;-43
2023/03/12 07:10:44;;;;;;;;;;;;;;;;;;5135257;27;1685;-44
2023/03/12 07:13:12;;;;;;;;;;;;;;;;;;5134915;27;1779;-47
2023/03/12 07:15:39;;;;;;;;;;;;;;;;;;5134905;27;2081;-43
2023/03/12 07:18:08;;;;;;;;;;;;;;;;;;5134862;27;1434;-43
2023/03/12 07:20:36;;;;;;;;;;;;;;;;;;5134815;27;2031;-46
2023/03/12 07:23:04;;;;;;;;;;;;;;;;;;5134690;27;1665;-42
2023/03/12 07:25:34;;;;;;;;;;;;;;;;;;5134687;27;2274;-43
2023/03/12 07:28:01;;;;;;;;;;;;;;;;;;5134490;27;1655;-43
2023/03/12 07:30:32;;;;;;;;;;;;;;;;;;5134594;27;1272;-47
2023/03/12 07:33:00;;;;;;;;;;;;;;;;;;5134509;27;2028;-42
2023/03/12 07:35:27;;;;;;;;;;;;;;;;;;5119533;27;1552;-42
2023/03/12 07:37:55;;;;;;;;;;;;;;;;;;5113975;28;2356;-43
2023/03/12 07:40:23;;;;;;;;;;;;;;;;;;5113955;28;1972;-43
2023/03/12 07:42:50;;;;;;;;;;;;;;;;;;5114125;28;1850;-42
2023/03/12 07:45:18;;;;;;;;;;;;;;;;;;5113280;28;1932;-43
2023/03/12 07:47:45;;;;;;;;;;;;;;;;;;5113797;28;1920;-45
2023/03/12 07:50:13;;;;;;;;;;;;;;;;;;5111033;27;1634;-54
2023/03/12 07:52:41;;;;;;;;;;;;;;;;;;5112987;28;1729;-42
2023/03/12 07:55:08;;;;;;;;;;;;;;;;;;5112398;28;1743;-44
2023/03/12 07:57:36;;;;;;;;;;;;;;;;;;5111624;27;1753;-40
2023/03/12 08:00:06;;;;;;;;;;;;;;;;;;5115898;27;1845;-45
2023/03/12 08:02:37;;;;;;;;;;;;;;;;;;5112456;28;1699;-42
2023/03/12 08:05:05;;;;;;;;;;;;;;;;;;5112894;27;1919;-43
2023/03/12 08:07:33;;;;;;;;;;;;;;;;;;5126990;27;1659;-43
2023/03/12 08:10:02;;;;;;;;;;;;;;;;;;5130813;27;2414;-40
2023/03/12 08:12:29;;;;;;;;;;;;;;;;;;5133773;27;1830;-44
2023/03/12 08:14:56;;;;;;;;;;;;;;;;;;5133788;27;1663;-43
2023/03/12 08:17:23;;;;;;;;;;;;;;;;;;5133636;27;1489;-43
2023/03/12 08:19:51;;;;;;;;;;;;;;;;;;5133715;27;2013;-43
2023/03/12 08:22:18;;;;;;;;;;;;;;;;;;5112864;28;1770;-44
2023/03/12 08:24:45;;;;;;;;;;;;;;;;;;5112911;28;1970;-44
2023/03/12 08:27:13;;;;;;;;;;;;;;;;;;5112921;28;1228;-43
2023/03/12 08:29:40;;;;;;;;;;;;;;;;;;5112799;28;2173;-46
2023/03/12 08:32:09;;;;;;;;;;;;;;;;;;5112914;28;1499;-41
2023/03/12 08:34:36;;;;;;;;;;;;;;;;;;5112213;28;1518;-43
2023/03/12 08:37:04;;;;;;;;;;;;;;;;;;5112632;28;1930;-43
2023/03/12 08:39:32;;;;;;;;;;;;;;;;;;5112753;28;1844;-44
2023/03/12 08:41:59;;;;;;;;;;;;;;;;;;5094306;28;2092;-45
2023/03/12 08:44:27;;;;;;;;;;;;;;;;;;5112495;28;2012;-42
2023/03/12 08:46:54;;;;;;;;;;;;;;;;;;5112829;28;1917;-44
2023/03/12 08:49:21;;;;;;;;;;;;;;;;;;5112520;28;1911;-44
2023/03/12 08:51:50;;;;;;;;;;;;;;;;;;5112574;28;2073;-44
2023/03/12 08:54:18;;;;;;;;;;;;;;;;;;5112463;28;1888;-43
2023/03/12 08:56:48;;;;;;;;;;;;;;;;;;5111610;28;1890;-42
2023/03/12 08:59:16;;;;;;;;;;;;;;;;;;5111958;28;1532;-43
2023/03/12 09:01:44;;;;;;;;;;;;;;;;;;5112142;28;1806;-43
2023/03/12 09:04:11;;;;;;;;;;;;;;;;;;5112411;28;1978;-42
2023/03/12 09:06:39;;;;;;;;;;;;;;;;;;5111903;28;2177;-43
2023/03/12 09:09:07;;;;;;;;;;;;;;;;;;5122245;27;2106;-44
2023/03/12 09:11:35;;;;;;;;;;;;;;;;;;5132810;27;1853;-43
2023/03/12 09:14:03;;;;;;;;;;;;;;;;;;5132681;27;1968;-48
2023/03/12 09:16:50;;;;;;;;;;;;;;;;;;5132561;27;1937;-48
2023/03/12 09:19:17;;;;;;;;;;;;;;;;;;5132057;27;1782;-44
2023/03/12 09:21:45;;;;;;;;;;;;;;;;;;5132618;27;1388;-43
2023/03/12 09:24:12;;;;;;;;;;;;;;;;;;5132514;27;1974;-43
2023/03/12 09:26:39;;;;;;;;;;;;;;;;;;5132638;27;1968;-45
2023/03/12 09:29:06;;;;;;;;;;;;;;;;;;5132296;27;1911;-43
2023/03/12 09:31:35;;;;;;;;;;;;;;;;;;5132536;27;1825;-49
2023/03/12 09:34:03;;;;;;;;;;;;;;;;;;5132489;27;1348;-49
2023/03/12 09:36:31;;;;;;;;;;;;;;;;;;5132492;27;1805;-42
2023/03/12 09:38:58;;;;;;;;;;;;;;;;;;5132311;27;1705;-45
2023/03/12 09:41:27;;;;;;;;;;;;;;;;;;5111612;28;1700;-51
2023/03/12 09:43:59;;;;;;;;;;;;;;;;;;5111975;28;2151;-43
2023/03/12 09:46:36;;;;;;;;;;;;;;;;;;5111846;28;1983;-44
2023/03/12 09:49:10;;;;;;;;;;;;;;;;;;5111744;28;1615;-47
2023/03/12 09:51:40;;;;;;;;;;;;;;;;;;5111584;28;1899;-45
2023/03/12 09:54:13;;;;;;;;;;;;;;;;;;5111714;28;1994;-49
2023/03/12 09:56:41;;;;;;;;;;;;;;;;;;5111705;28;2002;-42
2023/03/12 09:59:13;;;;;;;;;;;;;;;;;;5111639;28;1786;-43
2023/03/12 10:01:47;;;;;;;;;;;;;;;;;;5111516;28;1663;-43
2023/03/12 10:04:17;;;;;;;;;;;;;;;;;;5111473;28;2116;-43
2023/03/12 10:06:50;;;;;;;;;;;;;;;;;;5111631;28;1985;-42
2023/03/12 10:09:17;;;;;;;;;;;;;;;;;;5125524;27;2052;-44
2023/03/12 10:11:48;;;;;;;;;;;;;;;;;;5136353;27;2071;-42
2023/03/12 10:14:28;;;;;;;;;;;;;;;;;;5136114;27;1643;-46
2023/03/12 10:17:05;;;;;;;;;;;;;;;;;;5136100;27;1690;-42
2023/03/12 10:19:41;;;;;;;;;;;;;;;;;;5136108;27;2109;-43
2023/03/12 10:22:13;;;;;;;;;;;;;;;;;;5136043;27;1802;-42
2023/03/12 10:24:55;;;;;;;;;;;;;;;;;;5135908;27;2088;-45
2023/03/12 10:27:26;;;;;;;;;;;;;;;;;;5135886;27;1790;-43
2023/03/12 10:29:54;;;;;;;;;;;;;;;;;;5135930;27;1696;-42
2023/03/12 10:32:26;;;;;;;;;;;;;;;;;;5135895;27;2104;-43
2023/03/12 10:35:11;;;;;;;;;;;;;;;;;;5128209;27;1791;-42
2023/03/12 10:37:57;;;;;;;;;;;;;;;;;;5109567;27;1987;-42
2023/03/12 10:40:26;;;;;;;;;;;;;;;;;;5135565;27;1856;-42
2023/03/12 10:42:53;;;;;;;;;;;;;;;;;;5135625;27;1993;-44
2023/03/12 10:45:20;;;;;;;;;;;;;;;;;;5135606;27;1982;-43
2023/03/12 10:47:50;;;;;;;;;;;;;;;;;;5117080;27;1961;-43
2023/03/12 10:50:19;;;;;;;;;;;;;;;;;;5135450;27;1960;-43
2023/03/12 10:52:47;;;;;;;;;;;;;;;;;;5135550;27;1598;-43
2023/03/12 10:55:25;;;;;;;;;;;;;;;;;;5135350;27;2037;-44
2023/03/12 10:57:52;;;;;;;;;;;;;;;;;;5117297;27;2017;-43
2023/03/12 11:00:24;;;;;;;;;;;;;;;;;;5135415;27;2009;-44
2023/03/12 11:03:14;;;;;;;;;;;;;;;;;;5135377;27;2031;-45
2023/03/12 11:05:47;;;;;;;;;;;;;;;;;;5108669;27;1981;-43
2023/03/12 11:08:20;;;;;;;;;;;;;;;;;;5117154;27;1984;-42
2023/03/12 11:10:48;;;;;;;;;;;;;;;;;;5135088;27;1937;-44
2023/03/12 11:13:34;;;;;;;;;;;;;;;;;;5134989;27;2153;-44
2023/03/12 11:16:14;;;;;;;;;;;;;;;;;;5135250;27;2140;-43
2023/03/12 11:19:02;;;;;;;;;;;;;;;;;;5134881;27;1784;-43
2023/03/12 11:21:31;;;;;;;;;;;;;;;;;;5133765;27;1888;-42
2023/03/12 11:23:58;;;;;;;;;;;;;;;;;;5132646;27;1848;-43
2023/03/12 11:26:45;;;;;;;;;;;;;;;;;;5114280;28;1982;-42
2023/03/12 11:29:32;;;;;;;;;;;;;;;;;;5114242;28;1821;-42
2023/03/12 11:32:02;;;;;;;;;;;;;;;;;;5113995;28;1745;-43
2023/03/12 11:34:31;;;;;;;;;;;;;;;;;;5097988;28;2119;-43
2023/03/12 11:36:58;;;;;;;;;;;;;;;;;;5113960;28;2085;-43
2023/03/12 11:39:50;;;;;;;;;;;;;;;;;;5114181;28;2029;-48
2023/03/12 11:42:31;;;;;;;;;;;;;;;;;;5113805;28;1410;-50
2023/03/12 11:45:17;;;;;;;;;;;;;;;;;;5113709;28;2219;-44
2023/03/12 11:47:44;;;;;;;;;;;;;;;;;;5113864;28;2530;-48
2023/03/12 11:50:19;;;;;;;;;;;;;;;;;;5113752;28;2022;-47
2023/03/12 11:52:57;;;;;;;;;;;;;;;;;;5113670;28;2115;-49
2023/03/12 11:55:35;;;;;;;;;;;;;;;;;;5113864;28;1783;-45
2023/03/12 11:58:21;;;;;;;;;;;;;;;;;;5113833;28;1657;-43
2023/03/12 12:01:03;;;;;;;;;;;;;;;;;;5113559;28;1512;-48
2023/03/12 12:03:49;;;;;;;;;;;;;;;;;;5113754;28;2337;-42
2023/03/12 12:06:21;;;;;;;;;;;;;;;;;;5111024;27;2130;-47
2023/03/12 12:09:08;;;;;;;;;;;;;;;;;;5126535;27;2144;-51
2023/03/12 12:11:53;;;;;;;;;;;;;;;;;;5113442;28;1880;-43
2023/03/12 12:14:30;;;;;;;;;;;;;;;;;;5128505;27;1521;-42
2023/03/12 12:17:04;;;;;;;;;;;;;;;;;;5133899;27;2247;-46
2023/03/12 12:19:47;;;;;;;;;;;;;;;;;;5131168;27;2077;-43
2023/03/12 12:22:30;;;;;;;;;;;;;;;;;;5118139;27;1713;-43
2023/03/12 12:25:16;;;;;;;;;;;;;;;;;;5113352;28;1968;-50
2023/03/12 12:27:47;;;;;;;;;;;;;;;;;;5113128;28;1247;-44
2023/03/12 12:30:26;;;;;;;;;;;;;;;;;;5112828;28;2192;-42
2023/03/12 12:33:13;;;;;;;;;;;;;;;;;;5112918;28;1481;-46
2023/03/12 12:35:41;;;;;;;;;;;;;;;;;;5112856;28;1647;-42
2023/03/12 12:38:17;;;;;;;;;;;;;;;;;;5113121;28;2432;-42
2023/03/12 12:40:53;;;;;;;;;;;;;;;;;;5112602;27;1902;-43
2023/03/12 12:43:36;;;;;;;;;;;;;;;;;;5094421;28;1915;-43
2023/03/12 12:46:03;;;;;;;;;;;;;;;;;;5112602;28;1972;-42
2023/03/12 12:48:34;;;;;;;;;;;;;;;;;;5112651;28;1970;-43
2023/03/12 12:51:02;;;;;;;;;;;;;;;;;;5112570;28;2118;-42
2023/03/12 12:53:47;;;;;;;;;;;;;;;;;;5094144;28;2047;-43
2023/03/12 12:56:32;;;;;;;;;;;;;;;;;;5112699;28;1449;-44
2023/03/12 12:59:09;;;;;;;;;;;;;;;;;;5111788;28;1780;-42
2023/03/12 13:01:37;;;;;;;;;;;;;;;;;;5112513;28;1849;-43
2023/03/12 13:04:08;;;;;;;;;;;;;;;;;;5112430;28;1722;-42
2023/03/12 13:06:53;;;;;;;;;;;;;;;;;;5112277;28;1910;-44
2023/03/12 13:09:33;;;;;;;;;;;;;;;;;;5120871;27;1758;-40
2023/03/12 13:12:06;;;;;;;;;;;;;;;;;;5132701;27;2290;-41
2023/03/12 13:14:35;;;;;;;;;;;;;;;;;;5132854;27;1404;-40
2023/03/12 13:17:07;;;;;;;;;;;;;;;;;;5132868;27;2050;-43
2023/03/12 13:19:40;;;;;;;;;;;;;;;;;;5132591;27;2218;-42
2023/03/12 13:22:29;;;;;;;;;;;;;;;;;;5115041;27;1689;-45
2023/03/12 13:25:19;;;;;;;;;;;;;;;;;;5132580;27;2026;-40
2023/03/12 13:27:55;;;;;;;;;;;;;;;;;;5112989;28;1850;-41
2023/03/12 13:30:32;;;;;;;;;;;;;;;;;;5111803;28;1712;-39
2023/03/12 13:33:02;;;;;;;;;;;;;;;;;;5111790;28;1850;-40
2023/03/12 13:35:31;;;;;;;;;;;;;;;;;;5111524;28;1911;-41
2023/03/12 13:38:00;;;;;;;;;;;;;;;;;;5111861;28;1804;-41
2023/03/12 13:40:27;;;;;;;;;;;;;;;;;;5112004;28;1605;-39
2023/03/12 13:43:15;;;;;;;;;;;;;;;;;;5111138;28;2179;-40
2023/03/12 13:45:57;;;;;;;;;;;;;;;;;;5111912;28;1907;-39
2023/03/12 13:48:26;;;;;;;;;;;;;;;;;;5111708;28;2170;-44
2023/03/12 13:50:55;;;;;;;;;;;;;;;;;;5111659;28;1807;-43
2023/03/12 13:53:45;;;;;;;;;;;;;;;;;;5111568;28;2407;-43
2023/03/12 13:56:15;;;;;;;;;;;;;;;;;;5112013;28;1736;-43
2023/03/12 13:58:49;;;;;;;;;;;;;;;;;;5111797;28;1743;-43
2023/03/12 14:01:23;;;;;;;;;;;;;;;;;;5111527;28;1513;-53
2023/03/12 14:03:54;;;;;;;;;;;;;;;;;;5113652;28;1479;-43
2023/03/12 14:06:23;;;;;;;;;;;;;;;;;;5131920;28;1982;-44
2023/03/12 14:08:50;;;;;;;;;;;;;;;;;;5124660;28;1887;-49
2023/03/12 14:11:23;;;;;;;;;;;;;;;;;;5131890;28;1611;-46
2023/03/12 14:13:57;;;;;;;;;;;;;;;;;;5132084;28;1897;-43
2023/03/12 14:16:27;;;;;;;;;;;;;;;;;;5131790;28;1978;-47
2023/03/12 14:18:55;;;;;;;;;;;;;;;;;;5131908;28;2147;-49
2023/03/12 14:21:23;;;;;;;;;;;;;;;;;;5129249;28;1940;-42
2023/03/12 14:23:55;;;;;;;;;;;;;;;;;;5107742;28;1977;-48
2023/03/12 14:26:40;;;;;;;;;;;;;;;;;;5111438;28;1912;-42
2023/03/12 14:29:26;;;;;;;;;;;;;;;;;;5093469;28;2256;-46
2023/03/12 14:31:56;;;;;;;;;;;;;;;;;;5111390;28;2379;-47
2023/03/12 14:34:25;;;;;;;;;;;;;;;;;;5111269;28;1717;-43
2023/03/12 14:37:02;;;;;;;;;;;;;;;;;;5111370;28;1934;-43
2023/03/12 14:39:32;;;;;;;;;;;;;;;;;;5111118;28;1833;-43
2023/03/12 14:42:06;;;;;;;;;;;;;;;;;;5111041;28;1973;-43
2023/03/12 14:44:35;;;;;;;;;;;;;;;;;;5110979;28;1649;-48
2023/03/12 14:47:06;;;;;;;;;;;;;;;;;;5111134;28;1915;-42
2023/03/12 14:49:38;;;;;;;;;;;;;;;;;;5110957;28;1841;-43
2023/03/12 14:52:06;;;;;;;;;;;;;;;;;;5112201;28;2126;-44
2023/03/12 14:54:34;;;;;;;;;;;;;;;;;;5116598;28;1943;-44
2023/03/12 14:57:01;;;;;;;;;;;;;;;;;;5135254;27;2148;-43
2023/03/12 14:59:30;;;;;;;;;;;;;;;;;;5135328;27;1808;-43
2023/03/12 15:02:00;;;;;;;;;;;;;;;;;;5135254;27;1641;-46
2023/03/12 15:04:28;;;;;;;;;;;;;;;;;;5135139;27;2094;-46
2023/03/12 15:07:03;;;;;;;;;;;;;;;;;;5135019;27;1919;-46
2023/03/12 15:09:33;;;;;;;;;;;;;;;;;;5122034;27;1405;-42
2023/03/12 15:12:04;;;;;;;;;;;;;;;;;;5113594;28;1658;-49
2023/03/12 15:14:34;;;;;;;;;;;;;;;;;;5114500;28;2002;-42
2023/03/12 15:17:02;;;;;;;;;;;;;;;;;;5114465;28;1761;-41
2023/03/12 15:19:35;;;;;;;;;;;;;;;;;;5114458;28;1882;-43
2023/03/12 15:22:03;;;;;;;;;;;;;;;;;;5114209;27;1637;-46
2023/03/12 15:24:36;;;;;;;;;;;;;;;;;;5131359;27;2046;-44
2023/03/12 15:27:22;;;;;;;;;;;;;;;;;;5134535;27;1905;-43
2023/03/12 15:29:50;;;;;;;;;;;;;;;;;;5116344;27;2326;-44
2023/03/12 15:32:23;;;;;;;;;;;;;;;;;;5116520;27;1827;-45
2023/03/12 15:34:54;;;;;;;;;;;;;;;;;;5134336;27;1869;-43
2023/03/12 15:37:32;;;;;;;;;;;;;;;;;;5123835;27;2201;-45
2023/03/12 15:40:01;;;;;;;;;;;;;;;;;;5113877;28;1984;-44
2023/03/12 15:42:28;;;;;;;;;;;;;;;;;;5113976;28;1922;-43
2023/03/12 15:44:57;;;;;;;;;;;;;;;;;;5113785;28;1877;-43
2023/03/12 15:47:28;;;;;;;;;;;;;;;;;;5113831;28;1910;-42
2023/03/12 15:49:58;;;;;;;;;;;;;;;;;;5113818;28;2019;-45
2023/03/12 15:52:27;;;;;;;;;;;;;;;;;;5113677;28;1914;-43
2023/03/12 15:55:05;;;;;;;;;;;;;;;;;;5095556;28;2114;-41
2023/03/12 15:57:33;;;;;;;;;;;;;;;;;;5113944;27;1870;-42
2023/03/12 16:00:12;;;;;;;;;;;;;;;;;;5113626;28;1938;-48
2023/03/12 16:02:50;;;;;;;;;;;;;;;;;;5113149;28;1975;-42
2023/03/12 16:05:19;;;;;;;;;;;;;;;;;;5113750;28;1437;-43
2023/03/12 16:07:46;;;;;;;;;;;;;;;;;;5112695;28;1898;-43
2023/03/12 16:10:16;;;;;;;;;;;;;;;;;;5113412;28;1969;-45
2023/03/12 16:12:44;;;;;;;;;;;;;;;;;;5113403;28;1931;-42
2023/03/12 16:15:13;;;;;;;;;;;;;;;;;;5094716;28;2380;-44
2023/03/12 16:17:40;;;;;;;;;;;;;;;;;;5113381;28;1270;-47
2023/03/12 16:20:11;;;;;;;;;;;;;;;;;;5112848;28;2227;-43
2023/03/12 16:22:39;;;;;;;;;;;;;;;;;;5113065;27;2101;-43
2023/03/12 16:25:07;;;;;;;;;;;;;;;;;;5113636;28;1717;-43
2023/03/12 16:27:40;;;;;;;;;;;;;;;;;;5112921;28;1915;-44
2023/03/12 16:30:14;;;;;;;;;;;;;;;;;;5112988;28;2327;-43
2023/03/12 16:32:42;;;;;;;;;;;;;;;;;;5113115;28;2081;-43
2023/03/12 16:35:13;;;;;;;;;;;;;;;;;;5112958;28;1660;-44
2023/03/12 16:37:40;;;;;;;;;;;;;;;;;;5112878;28;1625;-49
2023/03/12 16:40:08;;;;;;;;;;;;;;;;;;5113298;28;1759;-43
2023/03/12 16:42:36;;;;;;;;;;;;;;;;;;5112900;28;1651;-43
2023/03/12 16:45:07;;;;;;;;;;;;;;;;;;5112750;28;2159;-42
2023/03/12 16:47:34;;;;;;;;;;;;;;;;;;5112754;27;2022;-42
2023/03/12 16:50:01;;;;;;;;;;;;;;;;;;5118648;27;2183;-47
2023/03/12 16:52:30;;;;;;;;;;;;;;;;;;5133619;27;1969;-44
2023/03/12 16:54:57;;;;;;;;;;;;;;;;;;5133158;27;1577;-43
2023/03/12 16:57:26;;;;;;;;;;;;;;;;;;5133223;27;2461;-43
2023/03/12 16:59:54;;;;;;;;;;;;;;;;;;5133322;27;2234;-43
2023/03/12 17:02:21;;;;;;;;;;;;;;;;;;5133134;27;1789;-44
2023/03/12 17:04:49;;;;;;;;;;;;;;;;;;5132972;27;1776;-43
2023/03/12 17:07:17;;;;;;;;;;;;;;;;;;5132715;27;1892;-42
2023/03/12 17:09:44;;;;;;;;;;;;;;;;;;5117419;27;1882;-44
2023/03/12 17:12:18;;;;;;;;;;;;;;;;;;5112256;28;1880;-43
2023/03/12 17:14:45;;;;;;;;;;;;;;;;;;5112163;28;1552;-42
2023/03/12 17:17:13;;;;;;;;;;;;;;;;;;5112053;28;2085;-48
2023/03/12 17:19:40;;;;;;;;;;;;;;;;;;5111564;28;2019;-43
2023/03/12 17:22:07;;;;;;;;;;;;;;;;;;5112165;28;2053;-43
2023/03/12 17:24:34;;;;;;;;;;;;;;;;;;5112101;28;1980;-44
2023/03/12 17:27:02;;;;;;;;;;;;;;;;;;5111928;28;2098;-43